sensor_id;sensor_type;location;lat;lon;timestamp;temperature;humidity
55004;DHT22;40900;52.710;6.438;2023-06-19T00:00:13;23.50;93.50
55004;DHT22;40900;52.710;6.438;2023-06-19T00:02:41;23.40;93.40
55004;DHT22;40900;52.710;6.438;2023-06-19T00:05:07;23.50;93.40
55004;DHT22;40900;52.710;6.438;2023-06-19T00:07:36;23.50;93.40
55004;DHT22;40900;52.710;6.438;2023-06-19T00:10:01;23.50;93.30
55004;DHT22;40900;52.710;6.438;2023-06-19T00:12:27;23.50;93.30
55004;DHT22;40900;52.710;6.438;2023-06-19T00:14:53;23.40;93.30
55004;DHT22;40900;52.710;6.438;2023-06-19T00:17:18;23.40;93.40
55004;DHT22;40900;52.710;6.438;2023-06-19T00:19:44;23.40;93.40
55004;DHT22;40900;52.710;6.438;2023-06-19T00:22:10;23.40;93.40
55004;DHT22;40900;52.710;6.438;2023-06-19T00:24:36;23.40;93.50
55004;DHT22;40900;52.710;6.438;2023-06-19T00:27:01;23.40;93.50
55004;DHT22;40900;52.710;6.438;2023-06-19T00:29:31;23.30;93.60
55004;DHT22;40900;52.710;6.438;2023-06-19T00:31:59;23.30;93.50
55004;DHT22;40900;52.710;6.438;2023-06-19T00:34:24;23.30;93.60
55004;DHT22;40900;52.710;6.438;2023-06-19T00:36:51;23.30;93.60
55004;DHT22;40900;52.710;6.438;2023-06-19T00:39:21;23.30;93.60
55004;DHT22;40900;52.710;6.438;2023-06-19T00:41:48;23.30;93.60
55004;DHT22;40900;52.710;6.438;2023-06-19T00:44:14;23.30;93.70
55004;DHT22;40900;52.710;6.438;2023-06-19T00:46:40;23.30;93.70
55004;DHT22;40900;52.710;6.438;2023-06-19T00:49:07;23.30;93.70
55004;DHT22;40900;52.710;6.438;2023-06-19T00:51:33;23.30;93.70
55004;DHT22;40900;52.710;6.438;2023-06-19T00:53:59;23.30;93.80
55004;DHT22;40900;52.710;6.438;2023-06-19T00:56:25;23.20;93.80
55004;DHT22;40900;52.710;6.438;2023-06-19T00:58:52;23.30;93.80
55004;DHT22;40900;52.710;6.438;2023-06-19T01:01:19;23.30;93.70
55004;DHT22;40900;52.710;6.438;2023-06-19T01:03:46;23.30;93.80
55004;DHT22;40900;52.710;6.438;2023-06-19T01:06:19;23.30;93.80
55004;DHT22;40900;52.710;6.438;2023-06-19T01:11:21;23.30;93.90
55004;DHT22;40900;52.710;6.438;2023-06-19T01:13:53;23.20;93.90
55004;DHT22;40900;52.710;6.438;2023-06-19T01:16:21;23.20;94.00
55004;DHT22;40900;52.710;6.438;2023-06-19T01:18:48;23.20;94.00
55004;DHT22;40900;52.710;6.438;2023-06-19T01:21:16;23.20;94.10
55004;DHT22;40900;52.710;6.438;2023-06-19T01:23:43;23.20;94.10
55004;DHT22;40900;52.710;6.438;2023-06-19T01:26:10;23.20;94.40
55004;DHT22;40900;52.710;6.438;2023-06-19T01:28:36;23.20;94.20
55004;DHT22;40900;52.710;6.438;2023-06-19T01:31:05;23.20;94.20
55004;DHT22;40900;52.710;6.438;2023-06-19T01:33:35;23.20;94.30
55004;DHT22;40900;52.710;6.438;2023-06-19T01:36:02;23.20;94.30
55004;DHT22;40900;52.710;6.438;2023-06-19T01:38:29;23.20;94.40
55004;DHT22;40900;52.710;6.438;2023-06-19T01:40:56;23.20;94.40
55004;DHT22;40900;52.710;6.438;2023-06-19T01:43:23;23.20;94.40
55004;DHT22;40900;52.710;6.438;2023-06-19T01:45:49;23.20;94.40
55004;DHT22;40900;52.710;6.438;2023-06-19T01:48:15;23.20;94.50
55004;DHT22;40900;52.710;6.438;2023-06-19T01:50:47;23.20;94.50
55004;DHT22;40900;52.710;6.438;2023-06-19T01:53:14;23.20;94.60
55004;DHT22;40900;52.710;6.438;2023-06-19T01:55:40;23.20;94.70
55004;DHT22;40900;52.710;6.438;2023-06-19T01:58:06;23.20;94.80
55004;DHT22;40900;52.710;6.438;2023-06-19T02:00:32;23.10;94.80
55004;DHT22;40900;52.710;6.438;2023-06-19T02:03:04;23.10;94.90
55004;DHT22;40900;52.710;6.438;2023-06-19T02:05:30;23.00;95.10
55004;DHT22;40900;52.710;6.438;2023-06-19T02:07:56;23.00;95.20
55004;DHT22;40900;52.710;6.438;2023-06-19T02:10:22;23.00;95.30
55004;DHT22;40900;52.710;6.438;2023-06-19T02:12:48;22.90;95.50
55004;DHT22;40900;52.710;6.438;2023-06-19T02:15:13;22.80;95.80
55004;DHT22;40900;52.710;6.438;2023-06-19T02:17:39;22.80;96.10
55004;DHT22;40900;52.710;6.438;2023-06-19T02:20:08;22.80;96.20
55004;DHT22;40900;52.710;6.438;2023-06-19T02:22:38;22.80;96.40
55004;DHT22;40900;52.710;6.438;2023-06-19T02:25:04;22.80;96.70
55004;DHT22;40900;52.710;6.438;2023-06-19T02:27:30;22.80;96.90
55004;DHT22;40900;52.710;6.438;2023-06-19T02:29:56;22.70;97.00
55004;DHT22;40900;52.710;6.438;2023-06-19T02:32:21;22.70;97.20
55004;DHT22;40900;52.710;6.438;2023-06-19T02:34:47;22.70;97.60
55004;DHT22;40900;52.710;6.438;2023-06-19T02:37:13;22.80;97.70
55004;DHT22;40900;52.710;6.438;2023-06-19T02:39:38;22.60;97.90
55004;DHT22;40900;52.710;6.438;2023-06-19T02:42:05;22.60;98.20
55004;DHT22;40900;52.710;6.438;2023-06-19T02:44:31;22.60;98.40
55004;DHT22;40900;52.710;6.438;2023-06-19T02:46:57;22.60;98.60
55004;DHT22;40900;52.710;6.438;2023-06-19T02:49:23;22.50;98.80
55004;DHT22;40900;52.710;6.438;2023-06-19T02:51:48;22.50;99.00
55004;DHT22;40900;52.710;6.438;2023-06-19T02:54:14;22.50;99.10
55004;DHT22;40900;52.710;6.438;2023-06-19T02:56:40;22.40;99.50
55004;DHT22;40900;52.710;6.438;2023-06-19T02:59:05;22.40;99.60
55004;DHT22;40900;52.710;6.438;2023-06-19T03:01:31;22.40;99.80
55004;DHT22;40900;52.710;6.438;2023-06-19T03:03:57;22.40;99.90
55004;DHT22;40900;52.710;6.438;2023-06-19T03:06:23;22.30;99.90
55004;DHT22;40900;52.710;6.438;2023-06-19T03:08:48;22.30;99.90
55004;DHT22;40900;52.710;6.438;2023-06-19T03:11:14;22.30;99.90
55004;DHT22;40900;52.710;6.438;2023-06-19T03:13:53;22.20;99.90
55004;DHT22;40900;52.710;6.438;2023-06-19T03:16:20;22.10;99.90
55004;DHT22;40900;52.710;6.438;2023-06-19T03:18:46;22.20;99.90
55004;DHT22;40900;52.710;6.438;2023-06-19T03:21:14;22.10;99.90
55004;DHT22;40900;52.710;6.438;2023-06-19T03:23:40;22.10;99.90
55004;DHT22;40900;52.710;6.438;2023-06-19T03:26:11;22.00;99.90
55004;DHT22;40900;52.710;6.438;2023-06-19T03:28:37;22.00;99.90
55004;DHT22;40900;52.710;6.438;2023-06-19T03:31:03;22.00;99.90
55004;DHT22;40900;52.710;6.438;2023-06-19T03:33:29;21.90;99.90
55004;DHT22;40900;52.710;6.438;2023-06-19T03:35:55;21.80;99.90
55004;DHT22;40900;52.710;6.438;2023-06-19T03:38:21;21.80;99.90
55004;DHT22;40900;52.710;6.438;2023-06-19T03:40:46;21.70;99.90
55004;DHT22;40900;52.710;6.438;2023-06-19T03:43:12;21.60;99.90
55004;DHT22;40900;52.710;6.438;2023-06-19T03:45:38;21.60;99.90
55004;DHT22;40900;52.710;6.438;2023-06-19T03:48:04;21.50;99.90
55004;DHT22;40900;52.710;6.438;2023-06-19T03:50:29;21.40;99.90
55004;DHT22;40900;52.710;6.438;2023-06-19T03:52:55;21.40;99.90
55004;DHT22;40900;52.710;6.438;2023-06-19T03:55:21;21.40;99.90
55004;DHT22;40900;52.710;6.438;2023-06-19T03:57:46;21.30;99.90
55004;DHT22;40900;52.710;6.438;2023-06-19T04:00:14;21.30;99.90
55004;DHT22;40900;52.710;6.438;2023-06-19T04:02:40;21.20;99.90
55004;DHT22;40900;52.710;6.438;2023-06-19T04:05:06;21.20;99.90
55004;DHT22;40900;52.710;6.438;2023-06-19T04:07:32;21.10;99.90
55004;DHT22;40900;52.710;6.438;2023-06-19T04:09:58;21.10;99.90
55004;DHT22;40900;52.710;6.438;2023-06-19T04:12:24;21.10;99.90
55004;DHT22;40900;52.710;6.438;2023-06-19T04:14:50;21.00;99.90
55004;DHT22;40900;52.710;6.438;2023-06-19T04:17:16;21.00;99.90
55004;DHT22;40900;52.710;6.438;2023-06-19T04:19:42;21.00;99.90
55004;DHT22;40900;52.710;6.438;2023-06-19T04:22:08;20.90;99.90
55004;DHT22;40900;52.710;6.438;2023-06-19T04:24:34;20.90;99.90
55004;DHT22;40900;52.710;6.438;2023-06-19T04:27:00;20.80;99.90
55004;DHT22;40900;52.710;6.438;2023-06-19T04:29:26;20.80;99.90
55004;DHT22;40900;52.710;6.438;2023-06-19T04:31:51;20.70;99.90
55004;DHT22;40900;52.710;6.438;2023-06-19T04:34:18;20.80;99.90
55004;DHT22;40900;52.710;6.438;2023-06-19T04:36:47;20.70;99.90
55004;DHT22;40900;52.710;6.438;2023-06-19T04:39:13;20.70;99.90
55004;DHT22;40900;52.710;6.438;2023-06-19T04:41:39;20.60;99.90
55004;DHT22;40900;52.710;6.438;2023-06-19T04:44:06;20.50;99.90
55004;DHT22;40900;52.710;6.438;2023-06-19T04:46:33;20.50;99.90
55004;DHT22;40900;52.710;6.438;2023-06-19T04:48:59;20.60;99.90
55004;DHT22;40900;52.710;6.438;2023-06-19T04:51:24;20.60;99.90
55004;DHT22;40900;52.710;6.438;2023-06-19T04:53:52;20.60;99.90
55004;DHT22;40900;52.710;6.438;2023-06-19T04:56:17;20.60;99.90
55004;DHT22;40900;52.710;6.438;2023-06-19T04:58:43;20.60;99.90
55004;DHT22;40900;52.710;6.438;2023-06-19T05:01:16;20.60;99.90
55004;DHT22;40900;52.710;6.438;2023-06-19T05:03:44;20.60;99.90
55004;DHT22;40900;52.710;6.438;2023-06-19T05:06:11;20.60;99.90
55004;DHT22;40900;52.710;6.438;2023-06-19T05:08:37;20.60;99.90
55004;DHT22;40900;52.710;6.438;2023-06-19T05:11:03;20.70;99.90
55004;DHT22;40900;52.710;6.438;2023-06-19T05:13:29;20.70;99.90
55004;DHT22;40900;52.710;6.438;2023-06-19T05:15:54;20.70;99.90
55004;DHT22;40900;52.710;6.438;2023-06-19T05:18:21;20.70;99.90
55004;DHT22;40900;52.710;6.438;2023-06-19T05:20:47;20.70;99.90
55004;DHT22;40900;52.710;6.438;2023-06-19T05:23:13;20.70;99.90
55004;DHT22;40900;52.710;6.438;2023-06-19T05:25:38;20.80;99.90
55004;DHT22;40900;52.710;6.438;2023-06-19T05:28:05;20.80;99.90
55004;DHT22;40900;52.710;6.438;2023-06-19T05:30:31;20.90;99.90
55004;DHT22;40900;52.710;6.438;2023-06-19T05:32:56;20.80;99.90
55004;DHT22;40900;52.710;6.438;2023-06-19T05:35:22;20.90;99.90
55004;DHT22;40900;52.710;6.438;2023-06-19T05:37:48;20.90;99.90
55004;DHT22;40900;52.710;6.438;2023-06-19T05:40:14;20.90;99.90
55004;DHT22;40900;52.710;6.438;2023-06-19T05:42:40;20.80;99.90
55004;DHT22;40900;52.710;6.438;2023-06-19T05:45:07;20.80;99.90
55004;DHT22;40900;52.710;6.438;2023-06-19T05:47:33;20.90;99.90
55004;DHT22;40900;52.710;6.438;2023-06-19T05:49:59;20.90;99.90
55004;DHT22;40900;52.710;6.438;2023-06-19T05:52:25;21.00;99.90
55004;DHT22;40900;52.710;6.438;2023-06-19T05:54:51;21.00;99.90
55004;DHT22;40900;52.710;6.438;2023-06-19T05:57:18;21.00;99.90
55004;DHT22;40900;52.710;6.438;2023-06-19T05:59:49;21.10;99.90
55004;DHT22;40900;52.710;6.438;2023-06-19T06:02:19;21.10;99.90
55004;DHT22;40900;52.710;6.438;2023-06-19T06:04:45;21.20;99.90
55004;DHT22;40900;52.710;6.438;2023-06-19T06:07:11;21.20;99.90
55004;DHT22;40900;52.710;6.438;2023-06-19T06:09:37;21.20;99.90
55004;DHT22;40900;52.710;6.438;2023-06-19T06:12:04;21.10;99.90
55004;DHT22;40900;52.710;6.438;2023-06-19T06:14:30;21.00;99.90
55004;DHT22;40900;52.710;6.438;2023-06-19T06:16:55;21.00;99.90
55004;DHT22;40900;52.710;6.438;2023-06-19T06:19:21;21.00;99.90
55004;DHT22;40900;52.710;6.438;2023-06-19T06:21:50;21.00;99.90
55004;DHT22;40900;52.710;6.438;2023-06-19T06:24:16;21.00;99.90
55004;DHT22;40900;52.710;6.438;2023-06-19T06:26:42;20.80;99.90
55004;DHT22;40900;52.710;6.438;2023-06-19T06:29:08;20.80;99.90
55004;DHT22;40900;52.710;6.438;2023-06-19T06:31:34;20.70;99.90
55004;DHT22;40900;52.710;6.438;2023-06-19T06:34:00;20.70;99.90
55004;DHT22;40900;52.710;6.438;2023-06-19T06:36:26;20.70;99.90
55004;DHT22;40900;52.710;6.438;2023-06-19T06:38:52;20.70;99.90
55004;DHT22;40900;52.710;6.438;2023-06-19T06:41:18;20.70;99.90
55004;DHT22;40900;52.710;6.438;2023-06-19T06:43:43;20.80;99.90
55004;DHT22;40900;52.710;6.438;2023-06-19T06:46:10;20.80;99.90
55004;DHT22;40900;52.710;6.438;2023-06-19T06:48:36;20.80;99.90
55004;DHT22;40900;52.710;6.438;2023-06-19T06:51:02;20.70;99.90
55004;DHT22;40900;52.710;6.438;2023-06-19T06:53:28;20.80;99.90
55004;DHT22;40900;52.710;6.438;2023-06-19T06:55:55;20.80;99.90
55004;DHT22;40900;52.710;6.438;2023-06-19T06:58:20;20.80;99.90
55004;DHT22;40900;52.710;6.438;2023-06-19T07:00:46;20.80;99.90
55004;DHT22;40900;52.710;6.438;2023-06-19T07:03:13;20.80;99.90
55004;DHT22;40900;52.710;6.438;2023-06-19T07:05:38;20.80;99.90
55004;DHT22;40900;52.710;6.438;2023-06-19T07:08:04;20.80;99.90
55004;DHT22;40900;52.710;6.438;2023-06-19T07:10:30;20.80;99.90
55004;DHT22;40900;52.710;6.438;2023-06-19T07:12:56;20.90;99.90
55004;DHT22;40900;52.710;6.438;2023-06-19T07:15:22;20.70;99.90
55004;DHT22;40900;52.710;6.438;2023-06-19T07:17:48;20.70;99.90
55004;DHT22;40900;52.710;6.438;2023-06-19T07:20:14;20.60;99.90
55004;DHT22;40900;52.710;6.438;2023-06-19T07:22:41;20.70;99.90
55004;DHT22;40900;52.710;6.438;2023-06-19T07:25:07;20.60;99.90
55004;DHT22;40900;52.710;6.438;2023-06-19T07:27:33;20.50;99.90
55004;DHT22;40900;52.710;6.438;2023-06-19T07:29:59;20.60;99.90
55004;DHT22;40900;52.710;6.438;2023-06-19T07:32:24;20.60;99.90
55004;DHT22;40900;52.710;6.438;2023-06-19T07:34:50;20.70;99.90
55004;DHT22;40900;52.710;6.438;2023-06-19T07:37:16;20.70;99.90
55004;DHT22;40900;52.710;6.438;2023-06-19T07:39:46;20.80;99.90
55004;DHT22;40900;52.710;6.438;2023-06-19T07:42:13;20.80;99.90
55004;DHT22;40900;52.710;6.438;2023-06-19T07:44:40;20.70;99.90
55004;DHT22;40900;52.710;6.438;2023-06-19T07:47:06;20.80;99.90
55004;DHT22;40900;52.710;6.438;2023-06-19T07:49:32;20.80;99.90
55004;DHT22;40900;52.710;6.438;2023-06-19T07:51:58;20.80;99.90
55004;DHT22;40900;52.710;6.438;2023-06-19T07:54:24;20.80;99.90
55004;DHT22;40900;52.710;6.438;2023-06-19T07:56:50;20.80;99.90
55004;DHT22;40900;52.710;6.438;2023-06-19T07:59:16;20.80;99.90
55004;DHT22;40900;52.710;6.438;2023-06-19T08:01:43;20.90;99.90
55004;DHT22;40900;52.710;6.438;2023-06-19T08:04:08;21.00;99.90
55004;DHT22;40900;52.710;6.438;2023-06-19T08:06:34;21.10;99.90
55004;DHT22;40900;52.710;6.438;2023-06-19T08:09:00;21.20;99.90
55004;DHT22;40900;52.710;6.438;2023-06-19T08:11:26;21.20;99.90
55004;DHT22;40900;52.710;6.438;2023-06-19T08:13:52;21.30;99.90
55004;DHT22;40900;52.710;6.438;2023-06-19T08:16:17;21.10;99.90
55004;DHT22;40900;52.710;6.438;2023-06-19T08:18:44;20.90;99.90
55004;DHT22;40900;52.710;6.438;2023-06-19T08:21:11;20.90;99.90
55004;DHT22;40900;52.710;6.438;2023-06-19T08:23:37;21.00;99.90
55004;DHT22;40900;52.710;6.438;2023-06-19T08:26:04;20.90;99.90
55004;DHT22;40900;52.710;6.438;2023-06-19T08:28:33;20.90;99.90
55004;DHT22;40900;52.710;6.438;2023-06-19T08:31:02;20.90;99.90
55004;DHT22;40900;52.710;6.438;2023-06-19T08:33:28;20.90;99.90
55004;DHT22;40900;52.710;6.438;2023-06-19T08:35:54;20.90;99.90
55004;DHT22;40900;52.710;6.438;2023-06-19T08:38:19;21.20;99.90
55004;DHT22;40900;52.710;6.438;2023-06-19T08:40:45;21.50;99.90
55004;DHT22;40900;52.710;6.438;2023-06-19T08:43:11;21.80;99.90
55004;DHT22;40900;52.710;6.438;2023-06-19T08:45:37;21.80;99.90
55004;DHT22;40900;52.710;6.438;2023-06-19T08:48:03;21.70;99.90
55004;DHT22;40900;52.710;6.438;2023-06-19T08:50:30;21.80;99.90
55004;DHT22;40900;52.710;6.438;2023-06-19T08:52:56;21.70;99.90
55004;DHT22;40900;52.710;6.438;2023-06-19T08:55:22;21.90;99.90
55004;DHT22;40900;52.710;6.438;2023-06-19T08:57:49;22.10;99.90
55004;DHT22;40900;52.710;6.438;2023-06-19T09:00:29;22.20;99.90
55004;DHT22;40900;52.710;6.438;2023-06-19T09:03:02;22.00;99.90
55004;DHT22;40900;52.710;6.438;2023-06-19T09:05:29;21.90;99.90
55004;DHT22;40900;52.710;6.438;2023-06-19T09:07:56;21.80;99.90
55004;DHT22;40900;52.710;6.438;2023-06-19T09:10:23;21.80;99.90
55004;DHT22;40900;52.710;6.438;2023-06-19T09:13:02;22.20;99.90
55004;DHT22;40900;52.710;6.438;2023-06-19T09:15:31;22.60;99.90
55004;DHT22;40900;52.710;6.438;2023-06-19T09:18:08;22.80;99.90
55004;DHT22;40900;52.710;6.438;2023-06-19T09:20:42;22.60;99.90
55004;DHT22;40900;52.710;6.438;2023-06-19T09:23:11;22.60;99.90
55004;DHT22;40900;52.710;6.438;2023-06-19T09:26:03;22.70;99.90
55004;DHT22;40900;52.710;6.438;2023-06-19T09:28:29;22.30;99.90
55004;DHT22;40900;52.710;6.438;2023-06-19T09:31:00;22.10;99.90
55004;DHT22;40900;52.710;6.438;2023-06-19T09:33:30;21.80;99.90
55004;DHT22;40900;52.710;6.438;2023-06-19T09:35:57;21.90;99.90
55004;DHT22;40900;52.710;6.438;2023-06-19T09:38:28;22.10;99.90
55004;DHT22;40900;52.710;6.438;2023-06-19T09:40:55;22.10;99.90
55004;DHT22;40900;52.710;6.438;2023-06-19T09:43:42;22.10;99.90
55004;DHT22;40900;52.710;6.438;2023-06-19T09:46:09;22.10;99.90
55004;DHT22;40900;52.710;6.438;2023-06-19T09:48:43;22.30;99.90
55004;DHT22;40900;52.710;6.438;2023-06-19T09:51:20;22.30;99.90
55004;DHT22;40900;52.710;6.438;2023-06-19T09:53:48;22.30;99.90
55004;DHT22;40900;52.710;6.438;2023-06-19T09:56:15;22.40;99.90
55004;DHT22;40900;52.710;6.438;2023-06-19T09:58:42;22.70;99.90
55004;DHT22;40900;52.710;6.438;2023-06-19T10:01:08;22.70;99.90
55004;DHT22;40900;52.710;6.438;2023-06-19T10:03:35;22.80;99.90
55004;DHT22;40900;52.710;6.438;2023-06-19T10:06:03;22.90;99.90
55004;DHT22;40900;52.710;6.438;2023-06-19T10:08:40;22.80;99.90
55004;DHT22;40900;52.710;6.438;2023-06-19T10:11:06;22.70;99.90
55004;DHT22;40900;52.710;6.438;2023-06-19T10:13:36;22.90;99.90
55004;DHT22;40900;52.710;6.438;2023-06-19T10:16:27;23.10;99.90
55004;DHT22;40900;52.710;6.438;2023-06-19T10:18:52;23.10;99.90
55004;DHT22;40900;52.710;6.438;2023-06-19T10:21:21;22.80;99.90
55004;DHT22;40900;52.710;6.438;2023-06-19T10:23:55;22.50;99.90
55004;DHT22;40900;52.710;6.438;2023-06-19T10:26:33;22.60;99.90
55004;DHT22;40900;52.710;6.438;2023-06-19T10:28:59;22.70;99.90
55004;DHT22;40900;52.710;6.438;2023-06-19T10:31:25;23.00;99.90
55004;DHT22;40900;52.710;6.438;2023-06-19T10:33:50;23.00;99.90
55004;DHT22;40900;52.710;6.438;2023-06-19T10:36:21;23.20;99.90
55004;DHT22;40900;52.710;6.438;2023-06-19T10:38:51;23.40;99.90
55004;DHT22;40900;52.710;6.438;2023-06-19T10:41:19;23.80;99.90
55004;DHT22;40900;52.710;6.438;2023-06-19T10:44:05;23.60;99.90
55004;DHT22;40900;52.710;6.438;2023-06-19T10:46:34;23.80;99.90
55004;DHT22;40900;52.710;6.438;2023-06-19T10:49:05;23.90;99.90
55004;DHT22;40900;52.710;6.438;2023-06-19T10:51:34;24.10;99.90
55004;DHT22;40900;52.710;6.438;2023-06-19T10:54:00;24.10;99.90
55004;DHT22;40900;52.710;6.438;2023-06-19T10:56:26;24.40;99.90
55004;DHT22;40900;52.710;6.438;2023-06-19T10:59:05;24.40;99.90
55004;DHT22;40900;52.710;6.438;2023-06-19T11:01:33;24.60;99.90
55004;DHT22;40900;52.710;6.438;2023-06-19T11:04:01;24.60;99.90
55004;DHT22;40900;52.710;6.438;2023-06-19T11:06:28;24.70;99.90
55004;DHT22;40900;52.710;6.438;2023-06-19T11:08:55;24.20;99.90
55004;DHT22;40900;52.710;6.438;2023-06-19T11:11:21;24.20;99.90
55004;DHT22;40900;52.710;6.438;2023-06-19T11:13:47;24.30;99.90
55004;DHT22;40900;52.710;6.438;2023-06-19T11:16:14;24.40;99.90
55004;DHT22;40900;52.710;6.438;2023-06-19T11:18:40;24.60;99.90
55004;DHT22;40900;52.710;6.438;2023-06-19T11:21:06;24.50;99.90
55004;DHT22;40900;52.710;6.438;2023-06-19T11:23:31;24.70;99.90
55004;DHT22;40900;52.710;6.438;2023-06-19T11:26:06;25.00;99.90
55004;DHT22;40900;52.710;6.438;2023-06-19T11:28:32;25.10;99.90
55004;DHT22;40900;52.710;6.438;2023-06-19T11:31:02;25.00;99.90
55004;DHT22;40900;52.710;6.438;2023-06-19T11:33:29;25.00;99.90
55004;DHT22;40900;52.710;6.438;2023-06-19T11:35:59;24.90;99.90
55004;DHT22;40900;52.710;6.438;2023-06-19T11:38:26;25.20;99.90
55004;DHT22;40900;52.710;6.438;2023-06-19T11:40:54;25.50;99.90
55004;DHT22;40900;52.710;6.438;2023-06-19T11:43:30;25.50;99.90
55004;DHT22;40900;52.710;6.438;2023-06-19T11:46:04;25.40;99.90
55004;DHT22;40900;52.710;6.438;2023-06-19T11:48:30;25.40;99.90
55004;DHT22;40900;52.710;6.438;2023-06-19T11:50:56;25.20;99.90
55004;DHT22;40900;52.710;6.438;2023-06-19T11:53:23;25.30;99.90
55004;DHT22;40900;52.710;6.438;2023-06-19T11:55:50;25.30;99.90
55004;DHT22;40900;52.710;6.438;2023-06-19T11:58:16;25.50;99.90
55004;DHT22;40900;52.710;6.438;2023-06-19T12:00:43;25.50;99.90
55004;DHT22;40900;52.710;6.438;2023-06-19T12:03:09;25.30;99.90
55004;DHT22;40900;52.710;6.438;2023-06-19T12:05:36;25.40;99.90
55004;DHT22;40900;52.710;6.438;2023-06-19T12:08:02;25.70;99.90
55004;DHT22;40900;52.710;6.438;2023-06-19T12:10:31;25.80;99.90
55004;DHT22;40900;52.710;6.438;2023-06-19T12:12:57;25.80;99.90
55004;DHT22;40900;52.710;6.438;2023-06-19T12:15:23;25.80;99.90
55004;DHT22;40900;52.710;6.438;2023-06-19T12:17:51;25.50;99.90
55004;DHT22;40900;52.710;6.438;2023-06-19T12:20:17;25.30;99.90
55004;DHT22;40900;52.710;6.438;2023-06-19T12:22:43;25.30;99.90
55004;DHT22;40900;52.710;6.438;2023-06-19T12:25:09;25.40;99.90
55004;DHT22;40900;52.710;6.438;2023-06-19T12:27:34;25.60;99.90
55004;DHT22;40900;52.710;6.438;2023-06-19T12:30:00;25.50;99.90
55004;DHT22;40900;52.710;6.438;2023-06-19T12:32:26;25.30;99.90
55004;DHT22;40900;52.710;6.438;2023-06-19T12:34:52;25.50;99.90
55004;DHT22;40900;52.710;6.438;2023-06-19T12:37:20;25.50;99.90
55004;DHT22;40900;52.710;6.438;2023-06-19T12:39:50;25.80;99.90
55004;DHT22;40900;52.710;6.438;2023-06-19T12:42:16;25.90;99.90
55004;DHT22;40900;52.710;6.438;2023-06-19T12:44:42;25.90;99.90
55004;DHT22;40900;52.710;6.438;2023-06-19T12:47:10;26.00;99.90
55004;DHT22;40900;52.710;6.438;2023-06-19T12:49:36;26.10;99.90
55004;DHT22;40900;52.710;6.438;2023-06-19T12:52:02;26.00;99.90
55004;DHT22;40900;52.710;6.438;2023-06-19T12:54:28;26.10;99.90
55004;DHT22;40900;52.710;6.438;2023-06-19T12:56:54;26.20;99.90
55004;DHT22;40900;52.710;6.438;2023-06-19T12:59:19;26.30;99.90
55004;DHT22;40900;52.710;6.438;2023-06-19T13:01:45;26.00;99.90
55004;DHT22;40900;52.710;6.438;2023-06-19T13:04:12;25.80;99.80
55004;DHT22;40900;52.710;6.438;2023-06-19T13:06:38;25.90;99.50
55004;DHT22;40900;52.710;6.438;2023-06-19T13:09:05;25.80;99.60
55004;DHT22;40900;52.710;6.438;2023-06-19T13:11:31;25.70;99.90
55004;DHT22;40900;52.710;6.438;2023-06-19T13:14:00;25.80;99.60
55004;DHT22;40900;52.710;6.438;2023-06-19T13:16:25;25.70;99.90
55004;DHT22;40900;52.710;6.438;2023-06-19T13:18:51;25.80;99.90
55004;DHT22;40900;52.710;6.438;2023-06-19T13:21:17;25.90;99.90
55004;DHT22;40900;52.710;6.438;2023-06-19T13:23:43;26.00;99.90
55004;DHT22;40900;52.710;6.438;2023-06-19T13:26:09;26.10;99.60
55004;DHT22;40900;52.710;6.438;2023-06-19T13:28:41;26.00;99.00
55004;DHT22;40900;52.710;6.438;2023-06-19T13:31:07;25.90;99.20
55004;DHT22;40900;52.710;6.438;2023-06-19T13:33:33;25.70;99.30
55004;DHT22;40900;52.710;6.438;2023-06-19T13:35:58;25.80;99.90
55004;DHT22;40900;52.710;6.438;2023-06-19T13:38:25;25.80;99.20
55004;DHT22;40900;52.710;6.438;2023-06-19T13:40:50;25.90;99.60
55004;DHT22;40900;52.710;6.438;2023-06-19T13:43:16;26.00;99.70
55004;DHT22;40900;52.710;6.438;2023-06-19T13:45:42;26.20;99.80
55004;DHT22;40900;52.710;6.438;2023-06-19T13:48:08;26.20;98.90
55004;DHT22;40900;52.710;6.438;2023-06-19T13:50:36;26.30;99.10
55004;DHT22;40900;52.710;6.438;2023-06-19T13:53:05;26.40;99.50
55004;DHT22;40900;52.710;6.438;2023-06-19T13:55:31;26.60;98.60
55004;DHT22;40900;52.710;6.438;2023-06-19T13:57:57;26.80;98.10
55004;DHT22;40900;52.710;6.438;2023-06-19T14:00:23;26.80;96.70
55004;DHT22;40900;52.710;6.438;2023-06-19T14:02:48;26.60;97.60
55004;DHT22;40900;52.710;6.438;2023-06-19T14:05:15;26.50;97.10
55004;DHT22;40900;52.710;6.438;2023-06-19T14:07:41;26.60;96.80
55004;DHT22;40900;52.710;6.438;2023-06-19T14:10:08;26.70;96.10
55004;DHT22;40900;52.710;6.438;2023-06-19T14:12:34;26.60;96.00
55004;DHT22;40900;52.710;6.438;2023-06-19T14:15:00;26.60;96.00
55004;DHT22;40900;52.710;6.438;2023-06-19T14:17:29;26.80;96.00
55004;DHT22;40900;52.710;6.438;2023-06-19T14:19:54;26.70;95.60
55004;DHT22;40900;52.710;6.438;2023-06-19T14:22:26;26.80;95.90
55004;DHT22;40900;52.710;6.438;2023-06-19T14:24:52;26.60;96.40
55004;DHT22;40900;52.710;6.438;2023-06-19T14:27:25;26.50;96.50
55004;DHT22;40900;52.710;6.438;2023-06-19T14:29:54;26.60;96.70
55004;DHT22;40900;52.710;6.438;2023-06-19T14:32:33;26.80;96.20
55004;DHT22;40900;52.710;6.438;2023-06-19T14:35:04;26.80;95.00
55004;DHT22;40900;52.710;6.438;2023-06-19T14:37:42;27.00;94.50
55004;DHT22;40900;52.710;6.438;2023-06-19T14:40:11;27.00;94.60
55004;DHT22;40900;52.710;6.438;2023-06-19T14:42:37;27.00;94.50
55004;DHT22;40900;52.710;6.438;2023-06-19T14:45:06;27.00;93.00
55004;DHT22;40900;52.710;6.438;2023-06-19T14:47:32;27.00;92.90
55004;DHT22;40900;52.710;6.438;2023-06-19T14:50:01;27.00;92.50
55004;DHT22;40900;52.710;6.438;2023-06-19T14:52:30;26.70;93.10
55004;DHT22;40900;52.710;6.438;2023-06-19T14:54:56;26.60;91.80
55004;DHT22;40900;52.710;6.438;2023-06-19T14:57:25;26.60;92.80
55004;DHT22;40900;52.710;6.438;2023-06-19T14:59:51;26.70;93.20
55004;DHT22;40900;52.710;6.438;2023-06-19T15:02:20;26.90;92.30
55004;DHT22;40900;52.710;6.438;2023-06-19T15:04:49;26.80;91.60
55004;DHT22;40900;52.710;6.438;2023-06-19T15:07:17;26.90;91.60
55004;DHT22;40900;52.710;6.438;2023-06-19T15:09:46;26.90;92.20
55004;DHT22;40900;52.710;6.438;2023-06-19T15:12:11;27.00;92.30
55004;DHT22;40900;52.710;6.438;2023-06-19T15:14:42;27.00;92.80
55004;DHT22;40900;52.710;6.438;2023-06-19T15:17:21;27.00;92.80
55004;DHT22;40900;52.710;6.438;2023-06-19T15:19:58;26.90;93.40
55004;DHT22;40900;52.710;6.438;2023-06-19T15:22:29;27.00;93.20
55004;DHT22;40900;52.710;6.438;2023-06-19T15:25:01;27.00;93.40
55004;DHT22;40900;52.710;6.438;2023-06-19T15:27:27;26.90;92.90
55004;DHT22;40900;52.710;6.438;2023-06-19T15:29:53;27.00;93.10
55004;DHT22;40900;52.710;6.438;2023-06-19T15:32:22;27.00;93.00